sensor_id;sensor_type;location;lat;lon;timestamp;P1;durP1;ratioP1;P2;durP2;ratioP2
75537;SDS011;64121;48.666;8.114;2023-02-03T00:01:15;4.05;;;1.73;;
75537;SDS011;64121;48.666;8.114;2023-02-03T00:03:41;6.82;;;2.38;;
75537;SDS011;64121;48.666;8.114;2023-02-03T00:06:09;3.22;;;2.22;;
75537;SDS011;64121;48.666;8.114;2023-02-03T00:08:39;4.75;;;1.75;;
75537;SDS011;64121;48.666;8.114;2023-02-03T00:11:06;5.43;;;2.08;;
75537;SDS011;64121;48.666;8.114;2023-02-03T00:13:33;4.32;;;1.60;;
75537;SDS011;64121;48.666;8.114;2023-02-03T00:16:01;5.18;;;2.03;;
75537;SDS011;64121;48.666;8.114;2023-02-03T00:18:26;3.08;;;1.70;;
75537;SDS011;64121;48.666;8.114;2023-02-03T00:20:53;2.78;;;1.80;;
75537;SDS011;64121;48.666;8.114;2023-02-03T00:23:19;5.07;;;2.03;;
75537;SDS011;64121;48.666;8.114;2023-02-03T00:25:44;4.22;;;1.98;;
75537;SDS011;64121;48.666;8.114;2023-02-03T00:28:10;6.30;;;2.40;;
75537;SDS011;64121;48.666;8.114;2023-02-03T00:30:35;3.00;;;2.03;;
75537;SDS011;64121;48.666;8.114;2023-02-03T00:33:02;4.32;;;1.88;;
75537;SDS011;64121;48.666;8.114;2023-02-03T00:35:28;3.97;;;2.03;;
75537;SDS011;64121;48.666;8.114;2023-02-03T00:37:59;4.40;;;1.85;;
75537;SDS011;64121;48.666;8.114;2023-02-03T00:40:26;6.80;;;1.77;;
75537;SDS011;64121;48.666;8.114;2023-02-03T00:42:51;3.33;;;1.60;;
75537;SDS011;64121;48.666;8.114;2023-02-03T00:45:17;3.55;;;1.50;;
75537;SDS011;64121;48.666;8.114;2023-02-03T00:47:42;2.92;;;1.67;;
75537;SDS011;64121;48.666;8.114;2023-02-03T00:50:10;4.65;;;1.90;;
75537;SDS011;64121;48.666;8.114;2023-02-03T00:52:37;3.05;;;1.50;;
75537;SDS011;64121;48.666;8.114;2023-02-03T00:55:03;5.00;;;2.47;;
75537;SDS011;64121;48.666;8.114;2023-02-03T00:57:30;2.75;;;1.33;;
75537;SDS011;64121;48.666;8.114;2023-02-03T00:59:55;2.90;;;1.42;;
75537;SDS011;64121;48.666;8.114;2023-02-03T01:02:21;5.18;;;1.65;;
75537;SDS011;64121;48.666;8.114;2023-02-03T01:04:50;4.32;;;1.52;;
75537;SDS011;64121;48.666;8.114;2023-02-03T01:07:16;3.90;;;1.70;;
75537;SDS011;64121;48.666;8.114;2023-02-03T01:09:42;2.50;;;1.75;;
75537;SDS011;64121;48.666;8.114;2023-02-03T01:12:10;2.33;;;1.45;;
75537;SDS011;64121;48.666;8.114;2023-02-03T01:14:35;4.82;;;1.70;;
75537;SDS011;64121;48.666;8.114;2023-02-03T01:17:00;4.10;;;1.52;;
75537;SDS011;64121;48.666;8.114;2023-02-03T01:19:26;5.63;;;2.25;;
75537;SDS011;64121;48.666;8.114;2023-02-03T01:21:51;2.95;;;1.75;;
75537;SDS011;64121;48.666;8.114;2023-02-03T01:24:18;4.63;;;1.80;;
75537;SDS011;64121;48.666;8.114;2023-02-03T01:26:43;3.38;;;2.10;;
75537;SDS011;64121;48.666;8.114;2023-02-03T01:29:09;5.25;;;1.75;;
75537;SDS011;64121;48.666;8.114;2023-02-03T01:31:35;3.33;;;1.67;;
75537;SDS011;64121;48.666;8.114;2023-02-03T01:34:02;2.85;;;1.50;;
75537;SDS011;64121;48.666;8.114;2023-02-03T01:36:28;2.80;;;1.48;;
75537;SDS011;64121;48.666;8.114;2023-02-03T01:38:54;3.78;;;1.60;;
75537;SDS011;64121;48.666;8.114;2023-02-03T01:41:22;3.17;;;2.38;;
75537;SDS011;64121;48.666;8.114;2023-02-03T01:43:50;3.33;;;1.50;;
75537;SDS011;64121;48.666;8.114;2023-02-03T01:46:20;2.92;;;1.20;;
75537;SDS011;64121;48.666;8.114;2023-02-03T01:48:49;3.75;;;1.77;;
75537;SDS011;64121;48.666;8.114;2023-02-03T01:51:17;4.35;;;1.55;;
75537;SDS011;64121;48.666;8.114;2023-02-03T01:53:43;5.00;;;1.63;;
75537;SDS011;64121;48.666;8.114;2023-02-03T01:56:09;3.38;;;1.50;;
75537;SDS011;64121;48.666;8.114;2023-02-03T01:58:36;4.85;;;1.73;;
75537;SDS011;64121;48.666;8.114;2023-02-03T02:01:05;2.70;;;1.50;;
75537;SDS011;64121;48.666;8.114;2023-02-03T02:03:31;3.22;;;1.58;;
75537;SDS011;64121;48.666;8.114;2023-02-03T02:06:02;4.13;;;1.42;;
75537;SDS011;64121;48.666;8.114;2023-02-03T02:08:29;2.67;;;1.38;;
75537;SDS011;64121;48.666;8.114;2023-02-03T02:10:55;2.40;;;1.35;;
75537;SDS011;64121;48.666;8.114;2023-02-03T02:13:22;2.60;;;1.35;;
75537;SDS011;64121;48.666;8.114;2023-02-03T02:15:52;3.75;;;1.33;;
75537;SDS011;64121;48.666;8.114;2023-02-03T02:18:23;3.20;;;1.10;;
75537;SDS011;64121;48.666;8.114;2023-02-03T02:21:10;2.45;;;0.70;;
75537;SDS011;64121;48.666;8.114;2023-02-03T02:23:55;2.03;;;0.98;;
75537;SDS011;64121;48.666;8.114;2023-02-03T02:26:36;1.38;;;0.75;;
75537;SDS011;64121;48.666;8.114;2023-02-03T02:29:18;3.00;;;1.30;;
75537;SDS011;64121;48.666;8.114;2023-02-03T02:32:03;2.35;;;0.88;;
75537;SDS011;64121;48.666;8.114;2023-02-03T02:34:37;2.38;;;0.98;;
75537;SDS011;64121;48.666;8.114;2023-02-03T02:37:13;1.48;;;0.77;;
75537;SDS011;64121;48.666;8.114;2023-02-03T02:39:48;1.55;;;0.80;;
75537;SDS011;64121;48.666;8.114;2023-02-03T02:42:18;1.40;;;0.80;;
75537;SDS011;64121;48.666;8.114;2023-02-03T02:44:51;2.65;;;0.88;;
75537;SDS011;64121;48.666;8.114;2023-02-03T02:47:21;2.15;;;0.63;;
75537;SDS011;64121;48.666;8.114;2023-02-03T02:49:49;1.67;;;0.70;;
75537;SDS011;64121;48.666;8.114;2023-02-03T02:52:18;1.83;;;0.75;;
75537;SDS011;64121;48.666;8.114;2023-02-03T02:54:47;1.70;;;0.80;;
75537;SDS011;64121;48.666;8.114;2023-02-03T02:57:15;3.40;;;1.08;;
75537;SDS011;64121;48.666;8.114;2023-02-03T02:59:43;1.20;;;0.60;;
75537;SDS011;64121;48.666;8.114;2023-02-03T03:02:09;1.25;;;0.68;;
75537;SDS011;64121;48.666;8.114;2023-02-03T03:04:36;1.27;;;0.50;;
75537;SDS011;64121;48.666;8.114;2023-02-03T03:07:03;2.35;;;0.63;;
75537;SDS011;64121;48.666;8.114;2023-02-03T03:09:32;1.20;;;0.68;;
75537;SDS011;64121;48.666;8.114;2023-02-03T03:12:04;1.33;;;0.65;;
75537;SDS011;64121;48.666;8.114;2023-02-03T03:14:34;2.55;;;0.55;;
75537;SDS011;64121;48.666;8.114;2023-02-03T03:17:03;2.35;;;0.85;;
75537;SDS011;64121;48.666;8.114;2023-02-03T03:19:34;1.40;;;0.70;;
75537;SDS011;64121;48.666;8.114;2023-02-03T03:22:05;1.58;;;0.70;;
75537;SDS011;64121;48.666;8.114;2023-02-03T03:24:33;1.83;;;0.70;;
75537;SDS011;64121;48.666;8.114;2023-02-03T03:27:06;1.45;;;0.55;;
75537;SDS011;64121;48.666;8.114;2023-02-03T03:29:34;2.08;;;0.75;;
75537;SDS011;64121;48.666;8.114;2023-02-03T03:32:04;1.33;;;0.77;;
75537;SDS011;64121;48.666;8.114;2023-02-03T03:34:30;1.60;;;0.73;;
75537;SDS011;64121;48.666;8.114;2023-02-03T03:36:59;2.28;;;0.88;;
75537;SDS011;64121;48.666;8.114;2023-02-03T03:39:32;1.50;;;0.70;;
75537;SDS011;64121;48.666;8.114;2023-02-03T03:42:04;1.90;;;0.80;;
75537;SDS011;64121;48.666;8.114;2023-02-03T03:44:36;1.75;;;0.60;;
75537;SDS011;64121;48.666;8.114;2023-02-03T03:47:09;1.98;;;0.70;;
75537;SDS011;64121;48.666;8.114;2023-02-03T03:49:38;1.17;;;0.68;;
75537;SDS011;64121;48.666;8.114;2023-02-03T03:52:09;0.90;;;0.45;;
75537;SDS011;64121;48.666;8.114;2023-02-03T03:54:38;1.55;;;0.50;;
75537;SDS011;64121;48.666;8.114;2023-02-03T03:57:08;1.45;;;0.80;;
75537;SDS011;64121;48.666;8.114;2023-02-03T03:59:37;1.70;;;0.68;;
75537;SDS011;64121;48.666;8.114;2023-02-03T04:02:04;1.05;;;0.52;;
75537;SDS011;64121;48.666;8.114;2023-02-03T04:04:31;1.15;;;0.57;;
75537;SDS011;64121;48.666;8.114;2023-02-03T04:06:59;1.67;;;0.50;;
75537;SDS011;64121;48.666;8.114;2023-02-03T04:09:26;1.55;;;0.50;;
75537;SDS011;64121;48.666;8.114;2023-02-03T04:11:51;1.35;;;0.65;;
75537;SDS011;64121;48.666;8.114;2023-02-03T04:14:16;2.53;;;0.60;;
75537;SDS011;64121;48.666;8.114;2023-02-03T04:16:42;1.40;;;0.50;;
75537;SDS011;64121;48.666;8.114;2023-02-03T04:19:07;1.45;;;0.60;;
75537;SDS011;64121;48.666;8.114;2023-02-03T04:21:32;2.53;;;0.50;;
75537;SDS011;64121;48.666;8.114;2023-02-03T04:23:58;1.73;;;0.60;;
75537;SDS011;64121;48.666;8.114;2023-02-03T04:26:25;2.42;;;0.80;;
75537;SDS011;64121;48.666;8.114;2023-02-03T04:28:50;1.42;;;0.68;;
75537;SDS011;64121;48.666;8.114;2023-02-03T04:31:15;1.35;;;0.50;;
75537;SDS011;64121;48.666;8.114;2023-02-03T04:33:41;2.13;;;0.68;;
75537;SDS011;64121;48.666;8.114;2023-02-03T04:36:06;1.20;;;0.68;;
75537;SDS011;64121;48.666;8.114;2023-02-03T04:38:32;1.20;;;0.70;;
75537;SDS011;64121;48.666;8.114;2023-02-03T04:40:57;1.55;;;0.63;;
75537;SDS011;64121;48.666;8.114;2023-02-03T04:43:24;2.03;;;0.80;;
75537;SDS011;64121;48.666;8.114;2023-02-03T04:45:49;1.63;;;0.90;;
75537;SDS011;64121;48.666;8.114;2023-02-03T04:48:15;1.83;;;0.80;;
75537;SDS011;64121;48.666;8.114;2023-02-03T04:50:40;2.35;;;0.85;;
75537;SDS011;64121;48.666;8.114;2023-02-03T04:53:06;2.45;;;0.85;;
75537;SDS011;64121;48.666;8.114;2023-02-03T04:55:31;2.80;;;1.00;;
75537;SDS011;64121;48.666;8.114;2023-02-03T04:57:56;2.58;;;0.80;;
75537;SDS011;64121;48.666;8.114;2023-02-03T05:00:24;2.50;;;0.90;;
75537;SDS011;64121;48.666;8.114;2023-02-03T05:02:50;3.85;;;0.90;;
75537;SDS011;64121;48.666;8.114;2023-02-03T05:05:15;2.53;;;1.05;;
75537;SDS011;64121;48.666;8.114;2023-02-03T05:07:41;4.82;;;1.42;;
75537;SDS011;64121;48.666;8.114;2023-02-03T05:10:06;1.92;;;0.90;;
75537;SDS011;64121;48.666;8.114;2023-02-03T05:12:32;2.30;;;1.00;;
75537;SDS011;64121;48.666;8.114;2023-02-03T05:14:57;3.38;;;1.00;;
75537;SDS011;64121;48.666;8.114;2023-02-03T05:17:24;2.67;;;1.10;;
75537;SDS011;64121;48.666;8.114;2023-02-03T05:19:49;2.58;;;1.05;;
75537;SDS011;64121;48.666;8.114;2023-02-03T05:22:15;3.22;;;0.95;;
75537;SDS011;64121;48.666;8.114;2023-02-03T05:24:40;3.42;;;0.90;;
75537;SDS011;64121;48.666;8.114;2023-02-03T05:27:05;2.35;;;1.30;;
75537;SDS011;64121;48.666;8.114;2023-02-03T05:29:31;2.22;;;1.13;;
75537;SDS011;64121;48.666;8.114;2023-02-03T05:31:56;2.92;;;1.20;;
75537;SDS011;64121;48.666;8.114;2023-02-03T05:34:23;2.58;;;0.77;;
75537;SDS011;64121;48.666;8.114;2023-02-03T05:36:48;2.92;;;1.30;;
75537;SDS011;64121;48.666;8.114;2023-02-03T05:39:13;2.65;;;1.20;;
75537;SDS011;64121;48.666;8.114;2023-02-03T05:41:39;2.55;;;1.13;;
75537;SDS011;64121;48.666;8.114;2023-02-03T05:44:04;3.08;;;1.10;;
75537;SDS011;64121;48.666;8.114;2023-02-03T05:46:30;3.45;;;1.10;;
75537;SDS011;64121;48.666;8.114;2023-02-03T05:48:55;2.17;;;1.15;;
75537;SDS011;64121;48.666;8.114;2023-02-03T05:51:21;2.40;;;1.00;;
75537;SDS011;64121;48.666;8.114;2023-02-03T05:53:47;1.55;;;0.90;;
75537;SDS011;64121;48.666;8.114;2023-02-03T05:56:12;2.38;;;1.08;;
75537;SDS011;64121;48.666;8.114;2023-02-03T05:58:37;2.38;;;1.25;;
75537;SDS011;64121;48.666;8.114;2023-02-03T06:01:03;2.60;;;1.20;;
75537;SDS011;64121;48.666;8.114;2023-02-03T06:03:28;1.90;;;1.23;;
75537;SDS011;64121;48.666;8.114;2023-02-03T06:05:54;3.08;;;1.10;;
75537;SDS011;64121;48.666;8.114;2023-02-03T06:08:20;2.78;;;1.20;;
75537;SDS011;64121;48.666;8.114;2023-02-03T06:10:46;6.25;;;1.27;;
75537;SDS011;64121;48.666;8.114;2023-02-03T06:13:12;2.38;;;1.30;;
75537;SDS011;64121;48.666;8.114;2023-02-03T06:15:38;4.97;;;2.13;;
75537;SDS011;64121;48.666;8.114;2023-02-03T06:18:04;4.28;;;1.73;;
75537;SDS011;64121;48.666;8.114;2023-02-03T06:20:30;3.15;;;1.50;;
75537;SDS011;64121;48.666;8.114;2023-02-03T06:22:55;3.05;;;1.35;;
75537;SDS011;64121;48.666;8.114;2023-02-03T06:25:22;3.33;;;1.40;;
75537;SDS011;64121;48.666;8.114;2023-02-03T06:27:47;3.28;;;1.42;;
75537;SDS011;64121;48.666;8.114;2023-02-03T06:30:12;6.68;;;2.10;;
75537;SDS011;64121;48.666;8.114;2023-02-03T06:32:38;3.47;;;1.30;;
75537;SDS011;64121;48.666;8.114;2023-02-03T06:35:03;5.82;;;1.95;;
75537;SDS011;64121;48.666;8.114;2023-02-03T06:37:29;2.90;;;1.40;;
75537;SDS011;64121;48.666;8.114;2023-02-03T06:39:54;3.55;;;1.35;;
75537;SDS011;64121;48.666;8.114;2023-02-03T06:42:21;6.32;;;1.63;;
75537;SDS011;64121;48.666;8.114;2023-02-03T06:44:46;3.28;;;1.73;;
75537;SDS011;64121;48.666;8.114;2023-02-03T06:47:12;4.40;;;1.88;;
75537;SDS011;64121;48.666;8.114;2023-02-03T06:49:37;3.90;;;1.60;;
75537;SDS011;64121;48.666;8.114;2023-02-03T06:52:02;4.65;;;1.75;;
75537;SDS011;64121;48.666;8.114;2023-02-03T06:54:28;2.95;;;1.70;;
75537;SDS011;64121;48.666;8.114;2023-02-03T06:56:53;3.47;;;1.45;;
75537;SDS011;64121;48.666;8.114;2023-02-03T06:59:20;4.30;;;1.80;;
75537;SDS011;64121;48.666;8.114;2023-02-03T07:01:46;6.35;;;1.88;;
75537;SDS011;64121;48.666;8.114;2023-02-03T07:04:11;2.70;;;1.50;;
75537;SDS011;64121;48.666;8.114;2023-02-03T07:06:36;5.95;;;1.80;;
75537;SDS011;64121;48.666;8.114;2023-02-03T07:09:03;5.10;;;2.35;;
75537;SDS011;64121;48.666;8.114;2023-02-03T07:11:29;5.18;;;1.58;;
75537;SDS011;64121;48.666;8.114;2023-02-03T07:13:55;3.40;;;1.63;;
75537;SDS011;64121;48.666;8.114;2023-02-03T07:16:22;3.35;;;1.60;;
75537;SDS011;64121;48.666;8.114;2023-02-03T07:18:47;4.22;;;1.52;;
75537;SDS011;64121;48.666;8.114;2023-02-03T07:21:13;5.18;;;2.00;;
75537;SDS011;64121;48.666;8.114;2023-02-03T07:23:39;4.68;;;1.92;;
75537;SDS011;64121;48.666;8.114;2023-02-03T07:26:05;4.43;;;1.67;;
75537;SDS011;64121;48.666;8.114;2023-02-03T07:28:31;4.13;;;1.70;;
75537;SDS011;64121;48.666;8.114;2023-02-03T07:30:57;2.58;;;1.45;;
75537;SDS011;64121;48.666;8.114;2023-02-03T07:33:23;3.97;;;1.90;;
75537;SDS011;64121;48.666;8.114;2023-02-03T07:35:50;4.65;;;2.05;;
75537;SDS011;64121;48.666;8.114;2023-02-03T07:38:16;2.83;;;1.60;;
75537;SDS011;64121;48.666;8.114;2023-02-03T07:40:41;4.88;;;1.40;;
75537;SDS011;64121;48.666;8.114;2023-02-03T07:43:06;3.88;;;1.75;;
75537;SDS011;64121;48.666;8.114;2023-02-03T07:45:32;3.35;;;1.50;;
75537;SDS011;64121;48.666;8.114;2023-02-03T07:47:57;3.63;;;1.48;;
75537;SDS011;64121;48.666;8.114;2023-02-03T07:50:24;5.95;;;2.22;;
75537;SDS011;64121;48.666;8.114;2023-02-03T07:52:50;5.60;;;2.17;;
75537;SDS011;64121;48.666;8.114;2023-02-03T07:55:15;6.05;;;2.20;;
75537;SDS011;64121;48.666;8.114;2023-02-03T07:57:40;5.70;;;1.88;;
75537;SDS011;64121;48.666;8.114;2023-02-03T08:00:06;4.97;;;1.60;;
75537;SDS011;64121;48.666;8.114;2023-02-03T08:02:32;3.55;;;1.80;;
75537;SDS011;64121;48.666;8.114;2023-02-03T08:04:58;4.03;;;1.65;;
75537;SDS011;64121;48.666;8.114;2023-02-03T08:07:25;3.88;;;1.80;;
75537;SDS011;64121;48.666;8.114;2023-02-03T08:09:50;4.40;;;1.83;;
75537;SDS011;64121;48.666;8.114;2023-02-03T08:12:16;3.28;;;1.63;;
75537;SDS011;64121;48.666;8.114;2023-02-03T08:14:41;3.58;;;1.50;;
75537;SDS011;64121;48.666;8.114;2023-02-03T08:17:06;4.40;;;1.50;;
75537;SDS011;64121;48.666;8.114;2023-02-03T08:19:32;7.25;;;1.70;;
75537;SDS011;64121;48.666;8.114;2023-02-03T08:21:57;4.15;;;1.92;;
75537;SDS011;64121;48.666;8.114;2023-02-03T08:24:24;4.63;;;1.98;;
75537;SDS011;64121;48.666;8.114;2023-02-03T08:26:49;3.40;;;1.33;;
75537;SDS011;64121;48.666;8.114;2023-02-03T08:29:14;3.38;;;1.70;;
75537;SDS011;64121;48.666;8.114;2023-02-03T08:31:40;2.97;;;1.92;;
75537;SDS011;64121;48.666;8.114;2023-02-03T08:34:06;4.63;;;1.45;;
75537;SDS011;64121;48.666;8.114;2023-02-03T08:36:31;5.68;;;1.60;;
75537;SDS011;64121;48.666;8.114;2023-02-03T08:38:57;3.25;;;1.83;;
75537;SDS011;64121;48.666;8.114;2023-02-03T08:41:23;2.97;;;1.40;;
75537;SDS011;64121;48.666;8.114;2023-02-03T08:43:49;5.20;;;1.30;;
75537;SDS011;64121;48.666;8.114;2023-02-03T08:46:14;3.30;;;1.52;;
75537;SDS011;64121;48.666;8.114;2023-02-03T08:48:39;2.75;;;1.35;;
75537;SDS011;64121;48.666;8.114;2023-02-03T08:51:08;4.05;;;1.60;;
75537;SDS011;64121;48.666;8.114;2023-02-03T08:53:34;3.33;;;1.45;;
75537;SDS011;64121;48.666;8.114;2023-02-03T08:55:59;2.03;;;1.27;;
75537;SDS011;64121;48.666;8.114;2023-02-03T08:58:30;3.67;;;1.42;;
75537;SDS011;64121;48.666;8.114;2023-02-03T09:01:03;1.95;;;1.08;;
75537;SDS011;64121;48.666;8.114;2023-02-03T09:03:30;2.60;;;1.40;;
75537;SDS011;64121;48.666;8.114;2023-02-03T09:05:55;4.55;;;1.67;;
75537;SDS011;64121;48.666;8.114;2023-02-03T09:08:21;2.33;;;1.20;;
75537;SDS011;64121;48.666;8.114;2023-02-03T09:10:46;5.28;;;1.83;;
75537;SDS011;64121;48.666;8.114;2023-02-03T09:13:11;3.53;;;1.42;;
75537;SDS011;64121;48.666;8.114;2023-02-03T09:15:38;2.25;;;1.42;;
75537;SDS011;64121;48.666;8.114;2023-02-03T09:18:03;3.72;;;1.40;;
75537;SDS011;64121;48.666;8.114;2023-02-03T09:20:29;3.47;;;1.45;;
75537;SDS011;64121;48.666;8.114;2023-02-03T09:22:54;3.90;;;1.90;;
75537;SDS011;64121;48.666;8.114;2023-02-03T09:25:22;3.10;;;1.40;;
75537;SDS011;64121;48.666;8.114;2023-02-03T09:27:47;4.72;;;2.10;;
75537;SDS011;64121;48.666;8.114;2023-02-03T09:30:13;3.10;;;1.30;;
75537;SDS011;64121;48.666;8.114;2023-02-03T09:32:39;3.72;;;1.48;;
75537;SDS011;64121;48.666;8.114;2023-02-03T09:35:05;3.50;;;1.20;;
75537;SDS011;64121;48.666;8.114;2023-02-03T09:37:31;4.47;;;1.48;;
75537;SDS011;64121;48.666;8.114;2023-02-03T09:39:56;3.47;;;1.23;;
75537;SDS011;64121;48.666;8.114;2023-02-03T09:42:25;3.38;;;1.33;;
75537;SDS011;64121;48.666;8.114;2023-02-03T09:45:01;3.78;;;1.40;;
75537;SDS011;64121;48.666;8.114;2023-02-03T09:47:36;2.25;;;1.23;;
75537;SDS011;64121;48.666;8.114;2023-02-03T09:50:09;2.65;;;1.20;;
75537;SDS011;64121;48.666;8.114;2023-02-03T09:52:39;3.00;;;1.80;;
75537;SDS011;64121;48.666;8.114;2023-02-03T09:55:06;2.72;;;1.45;;
75537;SDS011;64121;48.666;8.114;2023-02-03T09:57:41;2.63;;;1.17;;
75537;SDS011;64121;48.666;8.114;2023-02-03T10:00:13;3.58;;;1.55;;
75537;SDS011;64121;48.666;8.114;2023-02-03T10:02:48;2.40;;;1.20;;
75537;SDS011;64121;48.666;8.114;2023-02-03T10:05:23;3.15;;;1.40;;
75537;SDS011;64121;48.666;8.114;2023-02-03T10:07:56;2.80;;;1.17;;
75537;SDS011;64121;48.666;8.114;2023-02-03T10:10:33;4.35;;;1.45;;
75537;SDS011;64121;48.666;8.114;2023-02-03T10:13:09;3.22;;;1.45;;
75537;SDS011;64121;48.666;8.114;2023-02-03T10:15:51;3.03;;;1.20;;
75537;SDS011;64121;48.666;8.114;2023-02-03T10:18:28;2.10;;;1.13;;
75537;SDS011;64121;48.666;8.114;2023-02-03T10:20:59;2.88;;;1.48;;
75537;SDS011;64121;48.666;8.114;2023-02-03T10:23:29;4.78;;;1.40;;
75537;SDS011;64121;48.666;8.114;2023-02-03T10:25:58;2.55;;;1.23;;
75537;SDS011;64121;48.666;8.114;2023-02-03T10:28:27;2.03;;;1.10;;
75537;SDS011;64121;48.666;8.114;2023-02-03T10:30:56;2.70;;;1.15;;
75537;SDS011;64121;48.666;8.114;2023-02-03T10:33:24;2.75;;;1.00;;
75537;SDS011;64121;48.666;8.114;2023-02-03T10:35:51;2.72;;;1.60;;
75537;SDS011;64121;48.666;8.114;2023-02-03T10:38:22;4.47;;;1.30;;
75537;SDS011;64121;48.666;8.114;2023-02-03T10:40:59;3.20;;;1.33;;
75537;SDS011;64121;48.666;8.114;2023-02-03T10:43:25;2.55;;;1.50;;
75537;SDS011;64121;48.666;8.114;2023-02-03T10:45:53;2.15;;;1.13;;
75537;SDS011;64121;48.666;8.114;2023-02-03T10:48:19;2.40;;;1.40;;
75537;SDS011;64121;48.666;8.114;2023-02-03T10:50:46;3.28;;;1.45;;
75537;SDS011;64121;48.666;8.114;2023-02-03T10:53:25;3.30;;;1.60;;
75537;SDS011;64121;48.666;8.114;2023-02-03T10:56:00;5.95;;;1.27;;
75537;SDS011;64121;48.666;8.114;2023-02-03T10:58:28;2.60;;;1.27;;
75537;SDS011;64121;48.666;8.114;2023-02-03T11:00:55;3.47;;;1.15;;
75537;SDS011;64121;48.666;8.114;2023-02-03T11:03:29;4.07;;;1.33;;
75537;SDS011;64121;48.666;8.114;2023-02-03T11:06:05;1.75;;;1.00;;
75537;SDS011;64121;48.666;8.114;2023-02-03T11:08:34;3.45;;;1.40;;
75537;SDS011;64121;48.666;8.114;2023-02-03T11:11:02;3.22;;;1.40;;
75537;SDS011;64121;48.666;8.114;2023-02-03T11:13:28;2.55;;;1.40;;
75537;SDS011;64121;48.666;8.114;2023-02-03T11:15:54;4.28;;;1.70;;
75537;SDS011;64121;48.666;8.114;2023-02-03T11:21:12;3.75;;;1.40;;
75537;SDS011;64121;48.666;8.114;2023-02-03T11:23:49;2.35;;;1.50;;
75537;SDS011;64121;48.666;8.114;2023-02-03T11:26:20;4.35;;;1.67;;
75537;SDS011;64121;48.666;8.114;2023-02-03T11:28:48;2.85;;;1.20;;
75537;SDS011;64121;48.666;8.114;2023-02-03T11:31:20;3.03;;;1.05;;
75537;SDS011;64121;48.666;8.114;2023-02-03T11:33:52;2.05;;;1.10;;
75537;SDS011;64121;48.666;8.114;2023-02-03T11:36:20;2.47;;;1.30;;
75537;SDS011;64121;48.666;8.114;2023-02-03T11:38:46;1.45;;;0.95;;
75537;SDS011;64121;48.666;8.114;2023-02-03T11:41:17;3.55;;;1.20;;
75537;SDS011;64121;48.666;8.114;2023-02-03T11:43:44;2.88;;;1.42;;
75537;SDS011;64121;48.666;8.114;2023-02-03T11:46:10;2.50;;;1.15;;
75537;SDS011;64121;48.666;8.114;2023-02-03T11:48:36;2.08;;;1.10;;
75537;SDS011;64121;48.666;8.114;2023-02-03T11:51:10;1.90;;;1.10;;
75537;SDS011;64121;48.666;8.114;2023-02-03T11:53:55;3.35;;;1.42;;
75537;SDS011;64121;48.666;8.114;2023-02-03T11:56:34;3.22;;;1.58;;
75537;SDS011;64121;48.666;8.114;2023-02-03T12:02:16;2.30;;;1.40;;
75537;SDS011;64121;48.666;8.114;2023-02-03T12:05:17;4.43;;;1.42;;
75537;SDS011;64121;48.666;8.114;2023-02-03T12:07:53;2.22;;;1.25;;
75537;SDS011;64121;48.666;8.114;2023-02-03T12:10:33;3.65;;;1.80;;
75537;SDS011;64121;48.666;8.114;2023-02-03T12:13:13;2.97;;;1.40;;
75537;SDS011;64121;48.666;8.114;2023-02-03T12:15:59;3.50;;;1.85;;
75537;SDS011;64121;48.666;8.114;2023-02-03T12:18:39;3.78;;;1.52;;
75537;SDS011;64121;48.666;8.114;2023-02-03T12:21:22;8.57;;;1.58;;
75537;SDS011;64121;48.666;8.114;2023-02-03T12:24:06;3.33;;;1.90;;
75537;SDS011;64121;48.666;8.114;2023-02-03T12:26:40;5.68;;;2.05;;
75537;SDS011;64121;48.666;8.114;2023-02-03T12:29:14;3.42;;;1.92;;
75537;SDS011;64121;48.666;8.114;2023-02-03T12:31:45;2.40;;;1.23;;
75537;SDS011;64121;48.666;8.114;2023-02-03T12:34:15;2.35;;;1.33;;
75537;SDS011;64121;48.666;8.114;2023-02-03T12:36:44;3.28;;;1.67;;
75537;SDS011;64121;48.666;8.114;2023-02-03T12:39:16;3.13;;;1.25;;
75537;SDS011;64121;48.666;8.114;2023-02-03T12:41:48;2.58;;;1.55;;
75537;SDS011;64121;48.666;8.114;2023-02-03T12:44:21;5.88;;;1.60;;
75537;SDS011;64121;48.666;8.114;2023-02-03T12:46:54;3.00;;;1.67;;
75537;SDS011;64121;48.666;8.114;2023-02-03T12:49:29;3.47;;;1.63;;
75537;SDS011;64121;48.666;8.114;2023-02-03T12:52:02;3.53;;;1.55;;
75537;SDS011;64121;48.666;8.114;2023-02-03T12:54:36;4.75;;;1.60;;
75537;SDS011;64121;48.666;8.114;2023-02-03T12:57:11;2.80;;;1.63;;
75537;SDS011;64121;48.666;8.114;2023-02-03T12:59:42;2.60;;;1.40;;
75537;SDS011;64121;48.666;8.114;2023-02-03T13:02:13;3.72;;;1.80;;
75537;SDS011;64121;48.666;8.114;2023-02-03T13:04:44;4.15;;;1.58;;
75537;SDS011;64121;48.666;8.114;2023-02-03T13:07:17;3.25;;;1.38;;
75537;SDS011;64121;48.666;8.114;2023-02-03T13:09:50;4.78;;;1.83;;
75537;SDS011;64121;48.666;8.114;2023-02-03T13:12:24;3.28;;;1.88;;
75537;SDS011;64121;48.666;8.114;2023-02-03T13:14:56;4.03;;;1.60;;
75537;SDS011;64121;48.666;8.114;2023-02-03T13:17:29;2.72;;;1.80;;
75537;SDS011;64121;48.666;8.114;2023-02-03T13:20:01;3.65;;;1.60;;
75537;SDS011;64121;48.666;8.114;2023-02-03T13:22:37;2.90;;;1.70;;
75537;SDS011;64121;48.666;8.114;2023-02-03T13:25:04;3.65;;;1.60;;
75537;SDS011;64121;48.666;8.114;2023-02-03T13:27:42;2.42;;;1.55;;
75537;SDS011;64121;48.666;8.114;2023-02-03T13:30:20;3.42;;;1.77;;
75537;SDS011;64121;48.666;8.114;2023-02-03T13:33:06;3.00;;;1.70;;
75537;SDS011;64121;48.666;8.114;2023-02-03T13:36:02;3.88;;;1.95;;
75537;SDS011;64121;48.666;8.114;2023-02-03T13:38:44;3.10;;;1.88;;
75537;SDS011;64121;48.666;8.114;2023-02-03T13:41:30;2.28;;;1.20;;
75537;SDS011;64121;48.666;8.114;2023-02-03T13:44:04;2.83;;;1.35;;
75537;SDS011;64121;48.666;8.114;2023-02-03T13:46:36;3.38;;;1.55;;
75537;SDS011;64121;48.666;8.114;2023-02-03T13:49:02;2.45;;;1.58;;
75537;SDS011;64121;48.666;8.114;2023-02-03T13:51:30;3.45;;;1.55;;
75537;SDS011;64121;48.666;8.114;2023-02-03T13:53:58;1.98;;;1.13;;
75537;SDS011;64121;48.666;8.114;2023-02-03T13:56:27;2.28;;;1.40;;
75537;SDS011;64121;48.666;8.114;2023-02-03T13:59:00;2.80;;;1.30;;
75537;SDS011;64121;48.666;8.114;2023-02-03T14:01:32;2.33;;;1.23;;
75537;SDS011;64121;48.666;8.114;2023-02-03T14:04:00;2.08;;;1.20;;
75537;SDS011;64121;48.666;8.114;2023-02-03T14:09:33;2.28;;;1.10;;
75537;SDS011;64121;48.666;8.114;2023-02-03T14:14:58;2.13;;;0.98;;
75537;SDS011;64121;48.666;8.114;2023-02-03T14:20:36;2.63;;;1.08;;
75537;SDS011;64121;48.666;8.114;2023-02-03T14:23:06;2.40;;;1.42;;
75537;SDS011;64121;48.666;8.114;2023-02-03T14:25:37;3.05;;;1.40;;
75537;SDS011;64121;48.666;8.114;2023-02-03T14:28:06;3.10;;;1.40;;
75537;SDS011;64121;48.666;8.114;2023-02-03T14:30:45;2.00;;;1.30;;
75537;SDS011;64121;48.666;8.114;2023-02-03T14:33:40;3.95;;;2.15;;
75537;SDS011;64121;48.666;8.114;2023-02-03T14:39:05;5.68;;;2.53;;
75537;SDS011;64121;48.666;8.114;2023-02-03T14:42:02;3.63;;;1.42;;
75537;SDS011;64121;48.666;8.114;2023-02-03T14:44:36;1.83;;;1.20;;
75537;SDS011;64121;48.666;8.114;2023-02-03T14:47:13;1.83;;;1.00;;
75537;SDS011;64121;48.666;8.114;2023-02-03T14:49:54;2.33;;;1.13;;
75537;SDS011;64121;48.666;8.114;2023-02-03T14:52:34;2.38;;;1.00;;
75537;SDS011;64121;48.666;8.114;2023-02-03T14:55:21;2.35;;;1.30;;
75537;SDS011;64121;48.666;8.114;2023-02-03T14:57:58;1.92;;;1.20;;
75537;SDS011;64121;48.666;8.114;2023-02-03T15:00:27;2.20;;;1.17;;
75537;SDS011;64121;48.666;8.114;2023-02-03T15:03:14;2.03;;;1.20;;
75537;SDS011;64121;48.666;8.114;2023-02-03T15:05:43;2.30;;;1.33;;
75537;SDS011;64121;48.666;8.114;2023-02-03T15:13:54;2.55;;;1.17;;
75537;SDS011;64121;48.666;8.114;2023-02-03T15:16:21;2.63;;;1.60;;
75537;SDS011;64121;48.666;8.114;2023-02-03T15:18:58;1.90;;;1.15;;
75537;SDS011;64121;48.666;8.114;2023-02-03T15:21:24;2.10;;;1.00;;
75537;SDS011;64121;48.666;8.114;2023-02-03T15:23:50;2.20;;;0.95;;